createdAt,value
2023-03-12T00:02:24.120Z,19.08
2023-03-12T00:04:55.198Z,17.88
2023-03-12T00:07:43.908Z,14.57
2023-03-12T00:10:29.218Z,16.42
2023-03-12T00:12:59.099Z,16.63
2023-03-12T00:15:41.009Z,13.93
2023-03-12T00:18:07.901Z,14.02
2023-03-12T00:20:59.450Z,16.70
2023-03-12T00:23:35.357Z,19.20
2023-03-12T00:26:18.565Z,20.95
2023-03-12T00:28:45.834Z,15.23
2023-03-12T00:31:24.656Z,22.13
2023-03-12T00:34:01.764Z,19.33
2023-03-12T00:37:05.991Z,17.95
2023-03-12T00:39:40.063Z,10.80
2023-03-12T00:42:16.250Z,16.95
2023-03-12T00:44:44.415Z,16.05
2023-03-12T00:47:11.707Z,16.88
2023-03-12T00:49:40.993Z,19.20
2023-03-12T00:52:17.201Z,16.17
2023-03-12T00:54:44.190Z,13.85
2023-03-12T00:57:21.374Z,17.75
2023-03-12T00:59:55.554Z,16.58
2023-03-12T01:02:35.861Z,15.40
2023-03-12T01:05:02.985Z,15.60
2023-03-12T01:07:29.913Z,14.20
2023-03-12T01:09:59.813Z,20.90
2023-03-12T01:12:56.476Z,14.85
2023-03-12T01:15:56.586Z,21.50
2023-03-12T01:18:32.249Z,22.23
2023-03-12T01:21:01.932Z,21.27
2023-03-12T01:23:40.663Z,19.20
2023-03-12T01:26:38.860Z,20.92
2023-03-12T01:29:05.844Z,18.63
2023-03-12T01:31:41.479Z,19.80
2023-03-12T01:34:11.587Z,19.30
2023-03-12T01:36:57.459Z,19.00
2023-03-12T01:39:26.328Z,17.92
2023-03-12T01:41:56.821Z,18.98
2023-03-12T01:44:31.391Z,15.68
2023-03-12T01:47:01.097Z,15.45
2023-03-12T01:49:35.914Z,10.57
2023-03-12T01:52:28.296Z,17.63
2023-03-12T01:55:04.028Z,21.13
2023-03-12T01:57:43.736Z,17.30
2023-03-12T02:00:26.113Z,13.93
2023-03-12T02:02:58.925Z,16.80
2023-03-12T02:05:45.744Z,14.32
2023-03-12T02:08:17.919Z,11.05
2023-03-12T02:10:48.074Z,12.60
2023-03-12T02:13:20.984Z,19.13
2023-03-12T02:15:48.328Z,13.43
2023-03-12T02:18:19.688Z,15.40
2023-03-12T02:21:18.549Z,12.55
2023-03-12T02:24:02.416Z,15.95
2023-03-12T02:26:31.267Z,10.52
2023-03-12T02:29:01.219Z,12.65
2023-03-12T02:31:37.740Z,16.05
2023-03-12T02:34:05.110Z,14.73
2023-03-12T02:36:36.383Z,14.77
2023-03-12T02:39:04.406Z,13.70
2023-03-12T02:41:42.888Z,16.30
2023-03-12T02:44:24.337Z,16.20
2023-03-12T02:47:01.722Z,12.43
2023-03-12T02:49:31.790Z,14.30
2023-03-12T02:52:03.165Z,12.82
2023-03-12T02:54:31.123Z,15.57
2023-03-12T02:57:03.133Z,10.63
2023-03-12T02:59:30.068Z,13.63
2023-03-12T03:01:59.573Z,19.10
2023-03-12T03:04:28.355Z,19.88
2023-03-12T03:06:55.640Z,13.18
2023-03-12T03:09:22.668Z,14.43
2023-03-12T03:11:51.510Z,20.40
2023-03-12T03:14:24.820Z,20.38
2023-03-12T03:16:51.781Z,17.83
2023-03-12T03:19:19.194Z,19.08
2023-03-12T03:21:58.756Z,21.60
2023-03-12T03:24:25.659Z,19.27
2023-03-12T03:26:58.178Z,23.13
2023-03-12T03:32:12.520Z,15.68
2023-03-12T03:34:40.259Z,10.70
2023-03-12T03:37:20.057Z,18.63
2023-03-12T03:39:46.935Z,14.15
2023-03-12T03:42:17.712Z,19.17
2023-03-12T03:44:44.705Z,16.95
2023-03-12T03:47:17.665Z,16.40
2023-03-12T03:50:10.644Z,22.33
2023-03-12T03:52:37.833Z,22.58
2023-03-12T03:55:05.596Z,17.33
2023-03-12T03:57:32.552Z,20.30
2023-03-12T04:00:01.552Z,20.35
2023-03-12T04:02:30.387Z,10.70
2023-03-12T04:05:03.518Z,19.23
2023-03-12T04:07:31.389Z,16.85
2023-03-12T04:09:58.420Z,16.80
2023-03-12T04:12:26.260Z,13.80
2023-03-12T04:14:53.385Z,17.73
2023-03-12T04:17:26.084Z,13.68
2023-03-12T04:20:07.649Z,11.05
2023-03-12T04:22:44.251Z,19.63
2023-03-12T04:25:21.518Z,17.02
2023-03-12T04:27:50.280Z,17.25
2023-03-12T04:30:26.647Z,11.60
2023-03-12T04:33:04.823Z,16.00
2023-03-12T04:35:31.924Z,15.63
2023-03-12T04:38:03.477Z,17.52
2023-03-12T04:43:06.686Z,13.32
2023-03-12T04:45:33.582Z,13.23
2023-03-12T04:48:00.445Z,15.25
2023-03-12T04:50:41.653Z,13.18
2023-03-12T04:53:11.720Z,17.50
2023-03-12T04:55:42.985Z,14.10
2023-03-12T04:58:13.536Z,15.88
2023-03-12T05:00:41.481Z,13.55
2023-03-12T05:03:12.541Z,16.83
2023-03-12T05:05:53.789Z,21.92
2023-03-12T05:08:20.716Z,17.20
2023-03-12T05:10:47.741Z,16.13
2023-03-12T05:13:23.124Z,17.33
2023-03-12T05:15:51.010Z,15.10
2023-03-12T05:18:21.723Z,12.50
2023-03-12T05:21:11.763Z,20.42
2023-03-12T05:23:42.762Z,11.32
2023-03-12T05:26:37.482Z,9.65
2023-03-12T05:29:05.383Z,14.43
2023-03-12T05:31:35.561Z,15.02
2023-03-12T05:34:03.550Z,12.57
2023-03-12T05:36:34.032Z,12.25
2023-03-12T05:39:00.942Z,17.10
2023-03-12T05:41:34.722Z,15.85
2023-03-12T05:44:01.734Z,16.42
2023-03-12T05:46:34.742Z,16.23
2023-03-12T05:49:01.647Z,16.08
2023-03-12T05:51:28.547Z,10.23
2023-03-12T05:53:55.475Z,14.50
2023-03-12T05:56:39.198Z,9.80
2023-03-12T05:59:06.544Z,14.88
2023-03-12T06:01:33.811Z,14.20
2023-03-12T06:04:00.776Z,13.70
2023-03-12T06:06:38.923Z,8.80
2023-03-12T06:09:07.963Z,12.38
2023-03-12T06:11:35.250Z,14.88
2023-03-12T06:14:14.975Z,16.85
2023-03-12T06:16:42.007Z,15.65
2023-03-12T06:19:20.510Z,13.52
2023-03-12T06:21:52.585Z,11.20
2023-03-12T06:24:30.282Z,11.10
2023-03-12T06:26:57.069Z,13.20
2023-03-12T06:29:23.888Z,16.42
2023-03-12T06:31:56.387Z,16.45
2023-03-12T06:34:25.090Z,10.18
2023-03-12T06:36:55.036Z,14.85
2023-03-12T06:39:21.965Z,13.50
2023-03-12T06:41:55.085Z,11.13
2023-03-12T06:44:22.027Z,16.02
2023-03-12T06:46:52.507Z,17.83
2023-03-12T06:49:19.806Z,15.63
2023-03-12T06:51:47.232Z,10.13
2023-03-12T06:54:14.332Z,17.75
2023-03-12T06:56:48.611Z,16.92
2023-03-12T06:59:25.260Z,17.85
2023-03-12T07:01:53.971Z,11.88
2023-03-12T07:04:20.970Z,12.30
2023-03-12T07:06:51.518Z,10.38
2023-03-12T07:09:19.166Z,11.30
2023-03-12T07:11:48.231Z,15.10
2023-03-12T07:14:15.247Z,9.90
2023-03-12T07:16:42.098Z,12.98
2023-03-12T07:19:08.905Z,8.90
2023-03-12T07:21:35.832Z,10.20
2023-03-12T07:24:09.029Z,15.00
2023-03-12T07:26:36.006Z,12.18
2023-03-12T07:29:09.312Z,7.32
2023-03-12T07:31:36.281Z,9.35
2023-03-12T07:34:11.649Z,11.93
2023-03-12T07:36:45.632Z,14.68
2023-03-12T07:39:21.659Z,9.45
2023-03-12T07:41:51.128Z,11.88
2023-03-12T07:44:18.013Z,5.70
2023-03-12T07:46:50.868Z,17.63
2023-03-12T07:49:26.982Z,14.57
2023-03-12T07:51:59.851Z,10.07
2023-03-12T07:54:30.886Z,10.95
2023-03-12T07:57:07.211Z,8.35
2023-03-12T07:59:34.494Z,13.23
2023-03-12T08:02:04.318Z,10.70
2023-03-12T08:04:34.230Z,9.93
2023-03-12T08:07:03.474Z,8.93
2023-03-12T08:09:30.506Z,12.20
2023-03-12T08:11:57.377Z,8.57
2023-03-12T08:14:32.405Z,11.20
2023-03-12T08:17:10.209Z,10.85
2023-03-12T08:19:37.613Z,8.05
2023-03-12T08:22:04.473Z,8.73
2023-03-12T08:24:36.137Z,11.25
2023-03-12T08:27:03.262Z,8.90
2023-03-12T08:29:30.122Z,10.65
2023-03-12T08:32:04.877Z,8.23
2023-03-12T08:34:45.658Z,8.07
2023-03-12T08:37:20.346Z,13.40
2023-03-12T08:39:47.291Z,6.60
2023-03-12T08:42:14.984Z,7.72
2023-03-12T08:44:42.005Z,8.55
2023-03-12T08:47:09.119Z,5.80
2023-03-12T08:49:36.290Z,10.30
2023-03-12T08:52:03.257Z,9.60
2023-03-12T08:54:30.585Z,6.22
2023-03-12T08:57:00.747Z,6.95
2023-03-12T08:59:27.754Z,8.25
2023-03-12T09:02:05.392Z,6.50
2023-03-12T09:04:32.484Z,9.70
2023-03-12T09:07:03.402Z,11.60
2023-03-12T09:09:38.145Z,6.70
2023-03-12T09:12:08.471Z,7.30
2023-03-12T09:15:02.496Z,5.80
2023-03-12T09:17:23.665Z,11.40
2023-03-12T09:19:53.620Z,8.45
2023-03-12T09:22:20.954Z,9.63
2023-03-12T09:24:49.425Z,6.53
2023-03-12T09:27:22.532Z,9.35
2023-03-12T09:30:00.637Z,11.38
2023-03-12T09:32:37.062Z,10.40
2023-03-12T09:35:05.841Z,10.52
2023-03-12T09:37:47.689Z,7.78
2023-03-12T09:40:26.835Z,11.25
2023-03-12T09:43:03.088Z,13.02
2023-03-12T09:45:47.504Z,12.07
2023-03-12T09:48:55.674Z,13.05
2023-03-12T09:51:38.151Z,12.27
2023-03-12T09:54:15.762Z,12.50
2023-03-12T09:56:43.297Z,16.23
2023-03-12T09:59:16.710Z,12.15
2023-03-12T10:02:01.719Z,17.40
2023-03-12T10:05:00.136Z,12.13
2023-03-12T10:07:48.803Z,6.80
2023-03-12T10:10:40.380Z,9.02
2023-03-12T10:13:26.207Z,9.35
2023-03-12T10:16:32.307Z,9.43
2023-03-12T10:19:24.217Z,10.65
2023-03-12T10:22:20.468Z,8.60
2023-03-12T10:25:00.885Z,12.93
2023-03-12T10:27:32.878Z,11.15
2023-03-12T10:30:01.490Z,13.20
2023-03-12T10:32:53.048Z,10.63
2023-03-12T10:35:28.643Z,16.40
2023-03-12T10:37:59.304Z,14.43
2023-03-12T10:40:34.437Z,12.38
2023-03-12T10:43:10.700Z,14.50
2023-03-12T10:46:11.629Z,20.83
2023-03-12T10:48:38.802Z,20.92
2023-03-12T10:51:12.872Z,16.90
2023-03-12T10:53:48.160Z,9.60
2023-03-12T10:56:20.301Z,16.30
2023-03-12T10:58:53.239Z,11.18
2023-03-12T11:01:20.090Z,11.10
2023-03-12T11:03:47.950Z,17.60
2023-03-12T11:06:29.909Z,12.25
2023-03-12T11:09:40.025Z,13.65
2023-03-12T11:12:31.142Z,11.77
2023-03-12T11:14:59.638Z,13.75
2023-03-12T11:17:29.941Z,14.60
2023-03-12T11:20:18.221Z,15.15
2023-03-12T11:22:55.823Z,17.65
2023-03-12T11:25:29.595Z,12.55
2023-03-12T11:28:03.663Z,15.32
2023-03-12T11:30:42.073Z,15.52
2023-03-12T11:33:13.804Z,15.20
2023-03-12T11:36:09.731Z,16.75
2023-03-12T11:38:52.022Z,16.30
2023-03-12T11:41:56.425Z,11.85
2023-03-12T11:44:36.548Z,16.05
2023-03-12T11:50:39.292Z,13.63
2023-03-12T11:54:06.057Z,18.75
2023-03-12T11:57:07.305Z,14.02
2023-03-12T12:00:03.233Z,13.93
2023-03-12T12:03:07.478Z,15.60
2023-03-12T12:06:08.244Z,13.68
2023-03-12T12:09:28.234Z,14.10
2023-03-12T12:12:29.190Z,11.15
2023-03-12T12:15:28.505Z,12.73
2023-03-12T12:18:38.807Z,14.27
2023-03-12T12:21:11.368Z,12.88
2023-03-12T12:23:50.353Z,15.48
2023-03-12T12:27:03.714Z,12.18
2023-03-12T12:29:39.333Z,11.35
2023-03-12T12:32:16.331Z,12.27
2023-03-12T12:34:49.225Z,10.02
2023-03-12T12:37:26.029Z,11.95
2023-03-12T12:40:27.364Z,9.27
2023-03-12T12:43:07.003Z,13.25
2023-03-12T12:45:33.909Z,11.57
2023-03-12T12:48:16.676Z,13.63
2023-03-12T12:50:53.516Z,16.77
2023-03-12T12:53:38.441Z,15.90
2023-03-12T12:56:23.187Z,14.50
2023-03-12T12:59:28.521Z,14.30
2023-03-12T13:02:10.825Z,14.75
2023-03-12T13:04:46.744Z,11.15
2023-03-12T13:07:16.466Z,10.70
2023-03-12T13:09:50.261Z,10.77
2023-03-12T13:12:28.459Z,12.77
2023-03-12T13:15:24.203Z,15.73
2023-03-12T13:18:22.446Z,12.65
2023-03-12T13:21:15.352Z,11.85
2023-03-12T13:23:54.162Z,9.88
2023-03-12T13:26:45.277Z,18.05
2023-03-12T13:29:40.020Z,14.18
2023-03-12T13:32:36.450Z,14.27
2023-03-12T13:35:25.677Z,11.43
2023-03-12T13:37:58.407Z,8.98
2023-03-12T13:41:09.594Z,11.30
2023-03-12T13:43:52.008Z,15.30
2023-03-12T13:46:24.626Z,12.25
2023-03-12T13:48:59.773Z,15.23
2023-03-12T13:51:27.626Z,11.55
2023-03-12T13:54:07.044Z,10.43
2023-03-12T13:56:38.643Z,10.32
2023-03-12T13:59:17.111Z,10.88
2023-03-12T14:02:01.730Z,11.15
2023-03-12T14:04:41.776Z,11.57
2023-03-12T14:07:30.948Z,12.57
2023-03-12T14:10:24.072Z,8.85
2023-03-12T14:13:18.419Z,12.70
2023-03-12T14:16:04.649Z,11.98
2023-03-12T14:18:41.514Z,11.23
2023-03-12T14:21:24.750Z,8.80
2023-03-12T14:24:06.456Z,13.85
2023-03-12T14:26:36.976Z,11.20
2023-03-12T14:29:18.279Z,12.30
2023-03-12T14:32:05.640Z,9.32
2023-03-12T14:34:41.633Z,10.75
2023-03-12T14:37:45.819Z,12.13
2023-03-12T14:40:29.097Z,9.00
2023-03-12T14:43:07.077Z,11.07
2023-03-12T14:45:40.358Z,10.52
2023-03-12T14:48:07.247Z,12.73
2023-03-12T14:50:43.308Z,12.15
2023-03-12T14:53:35.294Z,10.77
2023-03-12T14:56:45.319Z,11.70
2023-03-12T14:59:42.447Z,11.50
2023-03-12T15:02:26.060Z,13.85
2023-03-12T15:05:22.598Z,10.43
2023-03-12T15:07:53.152Z,9.60
2023-03-12T15:10:31.148Z,11.02
2023-03-12T15:13:14.143Z,13.95
2023-03-12T15:15:43.744Z,12.90
2023-03-12T15:18:36.329Z,14.18
2023-03-12T15:21:03.579Z,11.60
2023-03-12T15:23:35.910Z,14.23
2023-03-12T15:26:24.002Z,11.20
2023-03-12T15:29:17.325Z,9.65
2023-03-12T15:32:01.734Z,11.68
2023-03-12T15:34:38.909Z,13.07
2023-03-12T15:37:45.807Z,11.73
2023-03-12T15:40:32.463Z,11.35
2023-03-12T15:43:07.852Z,11.35
2023-03-12T15:45:44.183Z,11.57
2023-03-12T15:48:39.981Z,13.45
2023-03-12T15:57:33.405Z,9.07
2023-03-12T16:03:12.241Z,11.07
2023-03-12T16:05:42.467Z,8.25
2023-03-12T16:08:31.732Z,8.25
2023-03-12T16:11:04.675Z,11.15
2023-03-12T16:13:34.370Z,9.60
2023-03-12T16:16:07.193Z,10.02
2023-03-12T16:19:01.234Z,10.73
2023-03-12T16:21:28.151Z,9.45
2023-03-12T16:23:55.001Z,9.95
2023-03-12T16:29:25.970Z,9.23
2023-03-12T16:32:14.415Z,10.10
2023-03-12T16:34:45.340Z,11.70
2023-03-12T16:37:15.159Z,13.85
2023-03-12T16:39:44.457Z,9.98
2023-03-12T16:42:16.433Z,7.10
2023-03-12T16:50:02.263Z,10.73
2023-03-12T16:52:43.965Z,10.10
2023-03-12T16:55:13.335Z,7.97
2023-03-12T16:57:46.759Z,9.75
2023-03-12T17:05:43.888Z,7.03
2023-03-12T17:08:37.647Z,9.70
2023-03-12T17:11:17.103Z,9.05
2023-03-12T17:13:52.066Z,10.80
2023-03-12T17:16:31.952Z,7.07
2023-03-12T17:19:02.037Z,7.75
2023-03-12T17:21:32.099Z,9.60
2023-03-12T17:23:59.003Z,8.48
2023-03-12T17:26:38.753Z,11.15
2023-03-12T17:29:14.671Z,9.23
2023-03-12T17:31:47.550Z,7.53
2023-03-12T17:34:17.973Z,9.60
2023-03-12T17:37:13.443Z,9.55
2023-03-12T17:39:50.131Z,10.43
2023-03-12T17:45:07.246Z,9.50
2023-03-12T17:47:42.394Z,8.25
2023-03-12T17:50:14.232Z,9.48
2023-03-12T17:55:24.765Z,6.53
2023-03-12T17:58:07.351Z,11.95
2023-03-12T18:03:17.488Z,11.40
2023-03-12T18:05:44.431Z,11.93
2023-03-12T18:08:14.150Z,10.30
2023-03-12T18:10:43.390Z,8.82
2023-03-12T18:13:19.320Z,14.13
2023-03-12T18:15:57.649Z,11.48
2023-03-12T18:18:30.626Z,8.05
2023-03-12T18:21:00.634Z,6.50
2023-03-12T18:23:36.983Z,8.25
2023-03-12T18:26:15.114Z,11.23
2023-03-12T18:28:42.620Z,11.60
2023-03-12T18:31:30.159Z,9.55
2023-03-12T18:33:58.242Z,10.27
2023-03-12T18:36:28.728Z,13.50
2023-03-12T18:39:12.094Z,9.57
2023-03-12T18:41:41.949Z,5.72
2023-03-12T18:44:17.876Z,7.70
2023-03-12T18:46:44.835Z,9.07
2023-03-12T18:49:21.817Z,8.05
2023-03-12T18:51:58.512Z,13.27
2023-03-12T18:54:27.810Z,8.23
2023-03-12T18:57:01.604Z,8.93
2023-03-12T18:59:37.782Z,11.15
2023-03-12T19:02:07.082Z,10.00
2023-03-12T19:07:19.972Z,9.73
2023-03-12T19:09:47.457Z,10.18
2023-03-12T19:12:15.392Z,8.77
2023-03-12T19:14:42.218Z,7.82
2023-03-12T19:17:12.060Z,10.13
2023-03-12T19:19:39.050Z,10.40
2023-03-12T19:22:05.931Z,8.68
2023-03-12T19:24:32.926Z,8.45
2023-03-12T19:26:59.911Z,8.05
2023-03-12T19:29:34.202Z,6.15
2023-03-12T19:32:04.106Z,10.65
2023-03-12T19:34:31.006Z,9.00
2023-03-12T19:37:07.180Z,12.23
2023-03-12T19:39:34.030Z,11.30
2023-03-12T19:42:04.064Z,8.95
2023-03-12T19:44:39.493Z,8.00
2023-03-12T19:49:51.266Z,11.88
2023-03-12T19:52:22.410Z,9.57
2023-03-12T19:55:03.302Z,6.68
2023-03-12T19:57:43.533Z,13.48
2023-03-12T20:00:12.440Z,8.70
2023-03-12T20:02:40.168Z,8.25
2023-03-12T20:05:10.828Z,13.02
2023-03-12T20:07:44.589Z,11.88
2023-03-12T20:10:11.928Z,11.10
2023-03-12T20:12:48.205Z,7.88
2023-03-12T20:20:46.236Z,7.50
2023-03-12T20:23:31.527Z,11.25
2023-03-12T20:26:10.450Z,12.90
2023-03-12T20:28:47.516Z,10.95
2023-03-12T20:31:21.929Z,9.68
2023-03-12T20:33:48.803Z,9.18
2023-03-12T20:36:15.681Z,13.02
2023-03-12T20:38:49.106Z,10.57
2023-03-12T20:41:25.125Z,7.95
2023-03-12T20:43:59.116Z,7.55
2023-03-12T20:46:29.186Z,5.55
2023-03-12T20:49:08.563Z,8.43
2023-03-12T20:51:41.654Z,10.15
2023-03-12T20:54:11.827Z,8.45
2023-03-12T20:56:43.325Z,8.00
2023-03-12T20:59:13.117Z,13.93
2023-03-12T21:01:51.441Z,13.35
2023-03-12T21:04:21.533Z,7.15
2023-03-12T21:06:50.282Z,9.50
2023-03-12T21:09:17.257Z,10.88
2023-03-12T21:11:45.487Z,8.10
2023-03-12T21:14:47.449Z,13.73
2023-03-12T21:17:14.929Z,11.20
2023-03-12T21:19:42.249Z,10.43
2023-03-12T21:22:15.544Z,8.38
2023-03-12T21:24:48.051Z,7.25
2023-03-12T21:27:21.572Z,13.10
2023-03-12T21:29:49.361Z,11.80
2023-03-12T21:32:42.672Z,7.97
2023-03-12T21:35:15.540Z,15.77
2023-03-12T21:37:51.799Z,8.93
2023-03-12T21:40:18.900Z,11.57
2023-03-12T21:42:47.502Z,9.23
2023-03-12T21:45:14.687Z,8.55
2023-03-12T21:47:43.433Z,11.23
2023-03-12T21:50:13.252Z,10.63
2023-03-12T21:52:50.583Z,7.53
2023-03-12T21:55:17.869Z,7.50
2023-03-12T21:57:48.329Z,12.02
2023-03-12T22:00:17.718Z,16.10
2023-03-12T22:05:35.632Z,10.93
2023-03-12T22:08:02.446Z,10.18
2023-03-12T22:10:29.274Z,8.55
2023-03-12T22:13:02.125Z,7.60
2023-03-12T22:15:50.441Z,7.85
2023-03-12T22:18:19.001Z,17.30
2023-03-12T22:23:32.305Z,12.38
2023-03-12T22:26:05.515Z,15.27
2023-03-12T22:28:36.598Z,19.02
2023-03-12T22:31:10.402Z,10.13
2023-03-12T22:33:37.706Z,17.08
2023-03-12T22:36:12.576Z,15.27
2023-03-12T22:38:39.775Z,10.88
2023-03-12T22:41:30.157Z,10.90
2023-03-12T22:44:02.984Z,12.27
2023-03-12T22:47:08.157Z,16.48
2023-03-12T22:52:16.592Z,15.27
2023-03-12T22:54:52.551Z,20.38
2023-03-12T22:57:22.603Z,16.77
2023-03-12T22:59:49.971Z,11.05
2023-03-12T23:02:24.964Z,26.85
2023-03-12T23:04:56.178Z,20.00
2023-03-12T23:07:23.030Z,20.85
2023-03-12T23:09:52.677Z,23.90
2023-03-12T23:12:19.600Z,32.55
2023-03-12T23:14:49.472Z,21.13
2023-03-12T23:17:18.757Z,17.23
2023-03-12T23:19:48.832Z,23.23
2023-03-12T23:22:19.319Z,25.60
2023-03-12T23:24:52.214Z,25.83
2023-03-12T23:27:25.272Z,22.00
2023-03-12T23:29:55.186Z,23.35
2023-03-12T23:32:24.937Z,21.98
2023-03-12T23:35:18.182Z,20.63
2023-03-12T23:37:45.157Z,17.55
2023-03-12T23:40:18.508Z,16.55
2023-03-12T23:43:08.176Z,18.38
2023-03-12T23:45:35.422Z,21.88
2023-03-12T23:48:05.984Z,19.48
2023-03-12T23:50:38.743Z,26.98
2023-03-12T23:53:05.655Z,16.90
2023-03-12T23:55:43.061Z,15.00
2023-03-12T23:58:18.808Z,13.00
